Time;durP1;ratioP1;P1;durP2;ratioP2;P2;SDS_P1;SDS_P2;PMS_P1;PMS_P2;Temp;Humidity;BMP_temperature;BMP_pressure;BME280_temperature;BME280_humidity;BME280_pressure;Samples;Min_cycle;Max_cycle;Signal;HPM_P1;HPM_P2
2022/07/06 00:02:24;;;;;;;7.10;5.00;;;;;;;;;;6314522;28;20049;-80
2022/07/06 00:05:26;;;;;;;12.88;5.35;;;;;;;;;;6319881;28;20070;-79
2022/07/06 00:08:28;;;;;;;8.32;5.40;;;;;;;;;;6318380;28;20127;-78
2022/07/06 00:11:30;;;;;;;6.45;4.82;;;;;;;;;;6317066;28;20284;-84
2022/07/06 00:14:32;;;;;;;9.55;4.85;;;;;;;;;;6317112;28;20063;-80
2022/07/06 00:17:35;;;;;;;6.60;4.15;;;;;;;;;;6317598;28;20064;-81
2022/07/06 00:20:37;;;;;;;7.45;4.32;;;;;;;;;;6314518;28;20134;-84
2022/07/06 00:23:39;;;;;;;8.40;4.38;;;;;;;;;;6317159;28;20110;-78
2022/07/06 00:26:41;;;;;;;6.40;4.13;;;;;;;;;;6310278;28;21378;-80
2022/07/06 00:29:43;;;;;;;6.18;3.97;;;;;;;;;;6313827;28;20086;-80
2022/07/06 00:32:47;;;;;;;10.00;4.13;;;;;;;;;;6317199;28;20106;-79
2022/07/06 00:35:49;;;;;;;8.98;4.35;;;;;;;;;;6315349;28;20044;-78
2022/07/06 00:38:50;;;;;;;6.05;3.33;;;;;;;;;;6313661;28;20058;-80
2022/07/06 00:41:52;;;;;;;6.40;3.25;;;;;;;;;;6314529;28;20068;-80
2022/07/06 00:44:54;;;;;;;6.10;3.25;;;;;;;;;;6319704;28;20365;-80
2022/07/06 00:47:57;;;;;;;5.88;2.97;;;;;;;;;;6316129;28;20048;-81
2022/07/06 00:50:59;;;;;;;6.00;3.10;;;;;;;;;;6315443;28;20059;-81
2022/07/06 00:54:04;;;;;;;8.02;2.75;;;;;;;;;;6316091;28;20048;-81
2022/07/06 00:57:07;;;;;;;5.32;2.42;;;;;;;;;;6318131;28;20074;-80
2022/07/06 01:00:12;;;;;;;4.93;2.75;;;;;;;;;;6316160;28;20055;-81
2022/07/06 01:03:15;;;;;;;3.85;3.00;;;;;;;;;;6318964;28;20350;-79
2022/07/06 01:06:17;;;;;;;6.45;2.58;;;;;;;;;;6317399;28;20044;-80
2022/07/06 01:09:18;;;;;;;7.15;2.58;;;;;;;;;;6317683;28;20064;-79
2022/07/06 01:12:20;;;;;;;8.18;3.10;;;;;;;;;;6321649;28;20051;-78
2022/07/06 01:15:23;;;;;;;3.25;2.40;;;;;;;;;;6323087;28;20060;-78
2022/07/06 01:18:27;;;;;;;4.60;2.70;;;;;;;;;;6313627;28;20044;-81
2022/07/06 01:21:30;;;;;;;4.55;2.63;;;;;;;;;;6315448;28;20378;-83
2022/07/06 01:24:32;;;;;;;3.85;2.65;;;;;;;;;;6314158;28;20062;-79
2022/07/06 01:27:36;;;;;;;9.85;3.00;;;;;;;;;;6315700;28;20040;-80
2022/07/06 01:30:38;;;;;;;5.05;2.58;;;;;;;;;;6315821;28;20052;-82
2022/07/06 01:33:39;;;;;;;4.80;2.58;;;;;;;;;;6316678;28;20075;-82
2022/07/06 01:36:43;;;;;;;6.75;2.88;;;;;;;;;;6318391;28;20063;-80
2022/07/06 01:39:44;;;;;;;3.97;2.35;;;;;;;;;;6318450;28;20115;-80
2022/07/06 01:42:46;;;;;;;3.92;2.35;;;;;;;;;;6316468;28;20067;-81
2022/07/06 01:45:48;;;;;;;4.40;2.30;;;;;;;;;;6311906;28;20064;-80
2022/07/06 01:48:49;;;;;;;4.40;2.10;;;;;;;;;;6315198;28;20044;-80
2022/07/06 01:51:52;;;;;;;5.38;2.50;;;;;;;;;;6316589;28;20330;-79
2022/07/06 01:54:54;;;;;;;2.95;2.13;;;;;;;;;;6319290;28;20065;-79
2022/07/06 01:57:56;;;;;;;4.40;2.47;;;;;;;;;;6313784;28;20056;-78
2022/07/06 02:00:59;;;;;;;5.07;1.70;;;;;;;;;;6316982;28;20044;-79
2022/07/06 02:04:00;;;;;;;6.30;3.00;;;;;;;;;;6314264;28;20090;-80
2022/07/06 02:07:04;;;;;;;6.45;2.55;;;;;;;;;;6312848;28;20067;-80
2022/07/06 02:10:06;;;;;;;5.07;2.58;;;;;;;;;;6317298;28;20048;-79
2022/07/06 02:13:07;;;;;;;3.35;2.47;;;;;;;;;;6313163;28;20052;-84
2022/07/06 02:16:09;;;;;;;4.10;2.65;;;;;;;;;;6315535;28;20048;-77
2022/07/06 02:19:11;;;;;;;4.45;2.28;;;;;;;;;;6312544;28;20219;-76
2022/07/06 02:22:14;;;;;;;3.38;2.13;;;;;;;;;;6312559;28;20063;-78
2022/07/06 02:25:16;;;;;;;5.88;2.38;;;;;;;;;;6313728;28;20055;-80
2022/07/06 02:28:18;;;;;;;4.57;2.28;;;;;;;;;;6317164;28;20056;-79
2022/07/06 02:31:19;;;;;;;3.22;2.10;;;;;;;;;;6315902;28;20366;-80
2022/07/06 02:34:22;;;;;;;5.40;2.50;;;;;;;;;;6316303;28;20044;-80
2022/07/06 02:37:25;;;;;;;5.10;2.03;;;;;;;;;;6316398;28;20051;-82
2022/07/06 02:40:27;;;;;;;4.60;2.30;;;;;;;;;;6309700;28;20457;-80
2022/07/06 02:43:28;;;;;;;6.95;2.70;;;;;;;;;;6315275;28;20064;-79
2022/07/06 02:46:30;;;;;;;6.65;2.55;;;;;;;;;;6310518;28;20350;-80
2022/07/06 02:49:32;;;;;;;5.25;2.25;;;;;;;;;;6315124;28;20044;-79
2022/07/06 02:52:35;;;;;;;4.60;2.38;;;;;;;;;;6315975;28;20075;-81
2022/07/06 02:55:36;;;;;;;7.38;2.25;;;;;;;;;;6312394;28;20239;-79
2022/07/06 02:58:38;;;;;;;4.75;2.60;;;;;;;;;;6315740;28;20318;-80
2022/07/06 03:01:40;;;;;;;3.80;2.20;;;;;;;;;;6310593;28;20208;-78
2022/07/06 03:04:42;;;;;;;5.15;2.47;;;;;;;;;;6339932;28;20078;-81
2022/07/06 03:07:45;;;;;;;3.67;2.33;;;;;;;;;;6341138;28;20300;-78
2022/07/06 03:10:46;;;;;;;6.60;2.60;;;;;;;;;;6339811;28;20369;-79
2022/07/06 03:13:48;;;;;;;6.28;2.65;;;;;;;;;;6335301;28;20044;-78
2022/07/06 03:16:50;;;;;;;5.30;3.08;;;;;;;;;;6341215;28;20058;-80
2022/07/06 03:19:52;;;;;;;5.47;3.20;;;;;;;;;;6339530;28;20048;-78
2022/07/06 03:22:55;;;;;;;3.45;2.33;;;;;;;;;;6338418;28;20058;-80
2022/07/06 03:25:57;;;;;;;4.07;2.33;;;;;;;;;;6341167;28;20066;-79
2022/07/06 03:28:58;;;;;;;4.55;2.67;;;;;;;;;;6344117;28;20410;-86
2022/07/06 03:32:00;;;;;;;3.25;2.60;;;;;;;;;;6342975;28;20055;-81
2022/07/06 03:35:02;;;;;;;3.92;2.30;;;;;;;;;;6348447;28;20051;-83
2022/07/06 03:38:05;;;;;;;4.75;3.03;;;;;;;;;;6347881;27;20062;-81
2022/07/06 03:41:07;;;;;;;3.70;2.38;;;;;;;;;;6341082;28;20052;-80
2022/07/06 03:44:09;;;;;;;7.32;2.20;;;;;;;;;;6341110;28;20052;-81
2022/07/06 03:47:10;;;;;;;4.95;2.45;;;;;;;;;;6339225;28;20036;-79
2022/07/06 03:50:12;;;;;;;3.80;1.95;;;;;;;;;;6343031;28;20048;-81
2022/07/06 03:53:15;;;;;;;5.70;1.77;;;;;;;;;;6344179;27;20047;-81
2022/07/06 03:56:29;;;;;;;3.15;2.03;;;;;;;;;;6340253;28;20048;-81
2022/07/06 03:59:31;;;;;;;4.30;1.92;;;;;;;;;;6341702;28;20047;-81
2022/07/06 04:02:32;;;;;;;2.83;1.80;;;;;;;;;;6334249;28;20048;-79
2022/07/06 04:05:34;;;;;;;4.53;1.67;;;;;;;;;;6319233;28;20227;-79
2022/07/06 04:08:37;;;;;;;2.63;1.83;;;;;;;;;;6315774;28;20261;-79
2022/07/06 04:11:39;;;;;;;3.03;1.67;;;;;;;;;;6315535;28;20048;-81
2022/07/06 04:14:41;;;;;;;3.97;2.35;;;;;;;;;;6317386;28;20226;-83
2022/07/06 04:17:55;;;;;;;4.05;1.92;;;;;;;;;;6317386;28;20239;-78
2022/07/06 04:20:58;;;;;;;4.97;1.90;;;;;;;;;;6320653;28;20319;-81
2022/07/06 04:24:01;;;;;;;5.88;2.08;;;;;;;;;;6316188;28;20076;-82
2022/07/06 04:27:05;;;;;;;2.47;1.60;;;;;;;;;;6318106;28;20341;-80
2022/07/06 04:30:07;;;;;;;4.40;1.73;;;;;;;;;;6315863;28;20055;-81
2022/07/06 04:33:09;;;;;;;4.13;1.65;;;;;;;;;;6319206;28;20327;-81
2022/07/06 04:36:11;;;;;;;2.92;1.48;;;;;;;;;;6318665;28;20048;-80
2022/07/06 04:39:14;;;;;;;2.63;1.60;;;;;;;;;;6319473;28;20058;-80
2022/07/06 04:42:16;;;;;;;3.47;1.90;;;;;;;;;;6315581;28;20047;-80
2022/07/06 04:45:17;;;;;;;3.03;1.70;;;;;;;;;;6315527;28;20122;-86
2022/07/06 04:48:20;;;;;;;3.58;1.77;;;;;;;;;;6320695;28;20051;-80
2022/07/06 04:51:21;;;;;;;4.27;1.90;;;;;;;;;;6316842;28;20242;-80
2022/07/06 04:54:25;;;;;;;4.22;2.28;;;;;;;;;;6317199;28;20060;-81
2022/07/06 04:57:29;;;;;;;3.95;1.80;;;;;;;;;;6320251;28;20048;-81
2022/07/06 05:00:31;;;;;;;4.57;1.80;;;;;;;;;;6317115;28;20091;-81
2022/07/06 05:03:35;;;;;;;2.00;1.55;;;;;;;;;;6314048;28;20051;-79
2022/07/06 05:06:36;;;;;;;2.85;1.60;;;;;;;;;;6314152;28;20318;-81
2022/07/06 05:09:40;;;;;;;3.05;1.77;;;;;;;;;;6316991;28;20048;-79
2022/07/06 05:12:42;;;;;;;3.33;1.80;;;;;;;;;;6311194;28;20052;-79
2022/07/06 05:15:43;;;;;;;5.70;1.60;;;;;;;;;;6312926;28;20055;-84
2022/07/06 05:18:45;;;;;;;2.20;1.70;;;;;;;;;;6312807;28;20052;-85
2022/07/06 05:21:47;;;;;;;6.53;1.65;;;;;;;;;;6313240;28;20053;-81
2022/07/06 05:24:50;;;;;;;2.30;1.65;;;;;;;;;;6313776;28;20071;-83
2022/07/06 05:27:52;;;;;;;5.28;1.63;;;;;;;;;;6314529;28;20048;-81
2022/07/06 05:30:54;;;;;;;2.85;2.10;;;;;;;;;;6314432;28;20094;-80
2022/07/06 05:33:55;;;;;;;2.25;1.58;;;;;;;;;;6312546;28;20064;-82
2022/07/06 05:36:57;;;;;;;3.33;1.70;;;;;;;;;;6314473;28;20071;-79
2022/07/06 05:40:01;;;;;;;3.33;1.60;;;;;;;;;;6316794;28;20056;-80
2022/07/06 05:43:03;;;;;;;3.30;1.80;;;;;;;;;;6313339;28;20044;-81
2022/07/06 05:46:05;;;;;;;3.05;1.50;;;;;;;;;;6311734;28;20056;-78
2022/07/06 05:52:26;;;;;;;3.22;1.52;;;;;;;;;;6313796;28;20108;-75
2022/07/06 05:55:29;;;;;;;4.35;1.58;;;;;;;;;;6312236;28;20044;-78
2022/07/06 05:58:30;;;;;;;;;;;;;;;;;;6314921;28;20073;-75
2022/07/06 06:01:32;;;;;;;3.40;1.98;;;;;;;;;;6313610;28;20313;-74
2022/07/06 06:04:34;;;;;;;4.53;1.77;;;;;;;;;;6314052;28;20048;-74
2022/07/06 06:07:36;;;;;;;3.50;1.77;;;;;;;;;;6310668;28;20342;-74
2022/07/06 06:10:40;;;;;;;3.57;1.90;;;;;;;;;;6312046;28;20265;-74
2022/07/06 06:13:41;;;;;;;3.70;1.95;;;;;;;;;;6315906;28;20068;-75
2022/07/06 06:16:43;;;;;;;7.85;2.05;;;;;;;;;;6317298;28;20055;-73
2022/07/06 06:19:45;;;;;;;2.83;1.90;;;;;;;;;;6315114;28;20235;-73
2022/07/06 06:22:48;;;;;;;5.50;1.98;;;;;;;;;;6314800;28;20047;-76
2022/07/06 06:25:51;;;;;;;3.13;1.55;;;;;;;;;;6316518;28;20263;-73
2022/07/06 06:28:52;;;;;;;3.15;1.88;;;;;;;;;;6311038;28;20032;-74
2022/07/06 06:31:54;;;;;;;3.33;2.10;;;;;;;;;;6314600;28;20056;-75
2022/07/06 06:34:56;;;;;;;5.93;1.75;;;;;;;;;;6317435;28;20076;-75
2022/07/06 06:37:58;;;;;;;2.50;1.77;;;;;;;;;;6315251;28;20055;-74
2022/07/06 06:41:01;;;;;;;4.50;1.92;;;;;;;;;;6316514;28;20108;-76
2022/07/06 06:44:03;;;;;;;3.55;1.92;;;;;;;;;;6313337;28;20048;-74
2022/07/06 06:47:05;;;;;;;3.42;1.70;;;;;;;;;;6314719;28;20049;-73
2022/07/06 06:50:07;;;;;;;3.58;2.03;;;;;;;;;;6315593;28;20135;-74
2022/07/06 06:53:09;;;;;;;3.73;1.70;;;;;;;;;;6319750;28;20204;-74
2022/07/06 06:56:12;;;;;;;2.97;1.75;;;;;;;;;;6316520;28;20470;-73
2022/07/06 06:59:13;;;;;;;2.28;1.67;;;;;;;;;;6315335;28;20044;-75
2022/07/06 07:02:15;;;;;;;2.70;1.58;;;;;;;;;;6309750;28;20133;-77
2022/07/06 07:05:17;;;;;;;9.48;7.90;;;;;;;;;;6313722;28;20056;-74
2022/07/06 07:08:18;;;;;;;18.85;14.60;;;;;;;;;;6310709;28;20044;-74
2022/07/06 07:11:21;;;;;;;3.90;2.60;;;;;;;;;;6315478;28;20055;-75
2022/07/06 07:14:23;;;;;;;2.72;1.67;;;;;;;;;;6313992;28;20374;-74
2022/07/06 07:17:25;;;;;;;3.65;2.15;;;;;;;;;;6315348;28;20114;-77
2022/07/06 07:20:29;;;;;;;2.83;1.75;;;;;;;;;;6312255;28;20044;-75
2022/07/06 07:23:31;;;;;;;4.35;2.00;;;;;;;;;;6313738;28;20044;-75
2022/07/06 07:26:34;;;;;;;3.15;1.98;;;;;;;;;;6316180;28;20242;-77
2022/07/06 07:29:36;;;;;;;3.58;1.92;;;;;;;;;;6313997;28;20055;-74
2022/07/06 07:32:40;;;;;;;2.22;1.83;;;;;;;;;;6311860;28;20045;-75
2022/07/06 07:35:41;;;;;;;2.00;1.80;;;;;;;;;;6311803;28;20052;-75
2022/07/06 07:38:43;;;;;;;3.55;2.10;;;;;;;;;;6312533;28;20056;-75
2022/07/06 07:41:46;;;;;;;2.47;1.80;;;;;;;;;;6314451;28;20281;-75
2022/07/06 07:44:48;;;;;;;3.90;2.50;;;;;;;;;;6312980;28;20093;-77
2022/07/06 07:47:49;;;;;;;2.58;1.83;;;;;;;;;;6315481;28;20326;-74
2022/07/06 07:50:51;;;;;;;5.78;2.05;;;;;;;;;;6318391;28;20036;-76
2022/07/06 07:53:53;;;;;;;4.10;2.17;;;;;;;;;;6317120;28;20044;-78
2022/07/06 07:56:56;;;;;;;3.17;2.00;;;;;;;;;;6312662;28;20231;-77
2022/07/06 07:59:58;;;;;;;4.43;1.80;;;;;;;;;;6307569;28;20071;-78
2022/07/06 08:03:00;;;;;;;1.83;1.60;;;;;;;;;;6310559;28;20193;-78
2022/07/06 08:06:02;;;;;;;2.97;2.03;;;;;;;;;;6314318;28;20056;-79
2022/07/06 08:09:04;;;;;;;4.85;2.00;;;;;;;;;;6311313;28;20369;-81
2022/07/06 08:12:09;;;;;;;6.88;2.95;;;;;;;;;;6311687;28;20044;-79
2022/07/06 08:15:11;;;;;;;3.30;1.83;;;;;;;;;;6320400;28;20123;-77
2022/07/06 08:18:13;;;;;;;4.67;1.60;;;;;;;;;;6314935;28;20109;-77
2022/07/06 08:21:14;;;;;;;5.47;1.80;;;;;;;;;;6320636;28;20053;-77
2022/07/06 08:24:16;;;;;;;4.88;1.92;;;;;;;;;;6318072;28;20048;-77
2022/07/06 08:27:19;;;;;;;3.90;1.90;;;;;;;;;;6318859;28;20094;-77
2022/07/06 08:30:21;;;;;;;5.70;1.85;;;;;;;;;;6317246;28;20234;-77
2022/07/06 08:33:22;;;;;;;2.50;1.80;;;;;;;;;;6312617;28;20052;-82
2022/07/06 08:36:24;;;;;;;3.63;1.73;;;;;;;;;;6317253;28;20055;-77
2022/07/06 08:39:26;;;;;;;6.05;1.63;;;;;;;;;;6314117;28;20275;-76
2022/07/06 08:42:32;;;;;;;3.88;2.00;;;;;;;;;;6317852;28;20052;-76
2022/07/06 08:45:35;;;;;;;3.50;1.70;;;;;;;;;;6318301;28;20289;-76
2022/07/06 08:48:38;;;;;;;4.50;1.98;;;;;;;;;;6317331;28;20051;-78
2022/07/06 08:51:41;;;;;;;3.05;1.60;;;;;;;;;;6315736;28;20060;-77
2022/07/06 08:54:43;;;;;;;;;;;;;;;;;;6318524;28;20048;-76
2022/07/06 08:57:47;;;;;;;1.92;1.50;;;;;;;;;;6316522;28;19916;-80
2022/07/06 09:00:49;;;;;;;1.92;1.10;;;;;;;;;;6315803;28;20273;-78
2022/07/06 09:03:51;;;;;;;1.52;1.20;;;;;;;;;;6316570;28;20331;-79
2022/07/06 09:06:54;;;;;;;2.30;1.50;;;;;;;;;;6317512;28;20231;-77
2022/07/06 09:09:56;;;;;;;2.72;1.70;;;;;;;;;;6313964;28;20049;-78
2022/07/06 09:13:05;;;;;;;3.88;1.90;;;;;;;;;;6313126;28;20109;-78
2022/07/06 09:16:10;;;;;;;2.08;1.20;;;;;;;;;;6317253;28;20343;-78
2022/07/06 09:19:13;;;;;;;2.97;1.20;;;;;;;;;;6315952;28;20341;-77
2022/07/06 09:22:26;;;;;;;1.88;1.10;;;;;;;;;;6314503;28;20094;-77
2022/07/06 09:25:28;;;;;;;8.23;1.40;;;;;;;;;;6319626;28;20048;-78
2022/07/06 09:28:42;;;;;;;1.98;1.20;;;;;;;;;;6314669;28;20231;-80
2022/07/06 09:31:56;;;;;;;4.63;1.25;;;;;;;;;;6316264;28;20231;-78
2022/07/06 09:34:58;;;;;;;2.25;1.17;;;;;;;;;;6317009;28;21188;-76
2022/07/06 09:38:07;;;;;;;1.50;1.13;;;;;;;;;;6314583;28;20792;-82
2022/07/06 09:41:08;;;;;;;2.38;1.08;;;;;;;;;;6312908;28;20064;-82
2022/07/06 09:44:11;;;;;;;2.85;1.10;;;;;;;;;;6313490;28;20064;-83
2022/07/06 09:47:14;;;;;;;1.08;0.98;;;;;;;;;;6316654;28;20059;-80
2022/07/06 09:50:17;;;;;;;1.95;1.30;;;;;;;;;;6316388;28;20048;-81
2022/07/06 09:53:19;;;;;;;2.35;1.45;;;;;;;;;;6321268;28;20161;-80
2022/07/06 09:56:21;;;;;;;4.95;1.48;;;;;;;;;;6314523;28;20107;-79
2022/07/06 09:59:27;;;;;;;2.73;1.37;;;;;;;;;;6316186;28;20262;-81
2022/07/06 10:02:29;;;;;;;1.83;1.30;;;;;;;;;;6314261;28;20465;-80
2022/07/06 10:05:32;;;;;;;3.42;1.40;;;;;;;;;;6317892;28;20352;-81
2022/07/06 10:08:34;;;;;;;4.63;1.25;;;;;;;;;;6311893;28;20067;-80
2022/07/06 10:11:38;;;;;;;;;;;;;;;;;;6317608;28;20344;-80
2022/07/06 10:14:41;;;;;;;1.48;1.20;;;;;;;;;;6315903;28;20085;-80
2022/07/06 10:17:43;;;;;;;2.05;1.48;;;;;;;;;;6318659;28;20048;-80
2022/07/06 10:20:45;;;;;;;2.10;1.40;;;;;;;;;;6312009;28;20223;-81
2022/07/06 10:23:47;;;;;;;4.05;1.13;;;;;;;;;;6316832;28;20047;-82
2022/07/06 10:26:49;;;;;;;;;;;;;;;;;;6312536;28;20258;-82
2022/07/06 10:29:52;;;;;;;3.78;1.75;;;;;;;;;;6313639;28;20099;-81
2022/07/06 10:32:56;;;;;;;4.18;1.40;;;;;;;;;;6314412;28;20056;-81
2022/07/06 10:35:58;;;;;;;4.15;1.52;;;;;;;;;;6317288;28;20047;-83
2022/07/06 10:41:02;;;;;;;2.08;1.40;;;;;;;;;;6316507;28;20060;-80
2022/07/06 10:42:40;;;;;;;3.22;2.28;;;;;;;;;;6315248;28;20051;-84
2022/07/06 10:45:56;;;;;;;4.03;1.50;;;;;;;;;;6314957;28;20082;-81
2022/07/06 10:48:58;;;;;;;5.07;1.45;;;;;;;;;;6313849;28;20041;-81
2022/07/06 10:52:00;;;;;;;2.65;1.50;;;;;;;;;;6316706;28;20075;-80
2022/07/06 10:55:02;;;;;;;2.15;1.40;;;;;;;;;;6314101;28;20048;-80
2022/07/06 10:58:04;;;;;;;2.40;1.60;;;;;;;;;;6318209;28;20052;-82
2022/07/06 11:01:08;;;;;;;2.78;1.50;;;;;;;;;;6314850;28;20043;-80
2022/07/06 11:04:10;;;;;;;2.65;1.55;;;;;;;;;;6311175;28;20112;-80
2022/07/06 11:07:13;;;;;;;2.63;1.70;;;;;;;;;;6314962;28;20053;-80
2022/07/06 11:10:15;;;;;;;3.53;1.55;;;;;;;;;;6314472;28;20145;-80
2022/07/06 11:13:27;;;;;;;2.58;1.63;;;;;;;;;;6315494;28;20044;-79
2022/07/06 11:16:33;;;;;;;;;;;;;;;;;;6315180;28;20052;-81
2022/07/06 11:19:35;;;;;;;1.98;1.60;;;;;;;;;;6314621;28;19915;-80
2022/07/06 11:22:37;;;;;;;3.88;1.75;;;;;;;;;;6315222;28;20044;-80
2022/07/06 11:25:39;;;;;;;3.30;1.98;;;;;;;;;;6315459;28;20350;-82
2022/07/06 11:28:40;;;;;;;4.18;1.70;;;;;;;;;;6314946;28;20095;-79
2022/07/06 11:31:45;;;;;;;3.58;1.50;;;;;;;;;;6317902;28;20048;-82
2022/07/06 11:34:46;;;;;;;3.85;1.70;;;;;;;;;;6317220;28;20212;-80
2022/07/06 11:37:48;;;;;;;;;;;;;;;;;;6317156;28;20246;-80
2022/07/06 11:40:54;;;;;;;2.78;1.40;;;;;;;;;;6314977;28;19916;-81
2022/07/06 11:43:55;;;;;;;3.03;2.28;;;;;;;;;;6311670;28;20052;-80
2022/07/06 11:47:00;;;;;;;;;;;;;;;;;;6317070;28;20044;-80
2022/07/06 11:50:02;;;;;;;6.00;1.90;;;;;;;;;;6321107;28;20023;-80
2022/07/06 11:53:04;;;;;;;;;;;;;;;;;;6323754;28;20047;-83
2022/07/06 11:56:06;;;;;;;1.90;1.60;;;;;;;;;;6321241;28;19922;-80
2022/07/06 11:59:09;;;;;;;2.95;1.60;;;;;;;;;;6321930;28;20835;-81
2022/07/06 12:02:14;;;;;;;3.35;1.70;;;;;;;;;;6317976;28;20238;-81
2022/07/06 12:05:30;;;;;;;1.83;1.55;;;;;;;;;;6321120;28;20048;-80
2022/07/06 12:08:33;;;;;;;5.97;1.80;;;;;;;;;;6322164;28;20373;-81
2022/07/06 12:11:36;;;;;;;2.40;1.60;;;;;;;;;;6321684;28;20363;-81
2022/07/06 12:14:40;;;;;;;5.82;1.70;;;;;;;;;;6317071;28;20041;-80
2022/07/06 12:17:47;;;;;;;2.42;1.73;;;;;;;;;;6323088;28;20044;-80
2022/07/06 12:20:49;;;;;;;4.97;1.70;;;;;;;;;;6319553;28;20063;-80
2022/07/06 12:23:52;;;;;;;2.92;1.60;;;;;;;;;;6322184;28;20716;-79
2022/07/06 12:26:55;;;;;;;3.70;1.50;;;;;;;;;;6318025;28;20269;-81
2022/07/06 12:30:09;;;;;;;4.10;1.77;;;;;;;;;;6317467;28;20331;-83
2022/07/06 12:33:18;;;;;;;2.05;1.50;;;;;;;;;;6319171;28;20056;-80
2022/07/06 12:36:19;;;;;;;3.05;1.67;;;;;;;;;;6322363;28;20112;-80
2022/07/06 12:39:23;;;;;;;2.55;1.60;;;;;;;;;;6318692;28;20048;-79
2022/07/06 12:42:24;;;;;;;1.60;1.35;;;;;;;;;;6316399;28;20060;-80
2022/07/06 12:45:27;;;;;;;2.00;1.70;;;;;;;;;;6317307;28;20044;-80
2022/07/06 12:48:31;;;;;;;1.85;1.58;;;;;;;;;;6319545;28;20336;-79
2022/07/06 12:52:00;;;;;;;6.32;1.52;;;;;;;;;;6314280;28;20291;-79
2022/07/06 12:55:02;;;;;;;3.25;1.35;;;;;;;;;;6317079;28;20056;-79
2022/07/06 12:58:04;;;;;;;3.03;1.45;;;;;;;;;;6320119;28;20052;-78
2022/07/06 13:01:06;;;;;;;2.80;1.42;;;;;;;;;;6316587;28;20044;-81
2022/07/06 13:04:09;;;;;;;;;;;;;;;;;;6318438;28;20082;-81
2022/07/06 13:07:19;;;;;;;5.10;1.40;;;;;;;;;;6317806;28;19959;-79
2022/07/06 13:10:21;;;;;;;3.38;1.83;;;;;;;;;;6314255;28;20052;-81
2022/07/06 13:13:23;;;;;;;4.63;1.90;;;;;;;;;;6316180;28;20713;-80
2022/07/06 13:16:30;;;;;;;21.40;17.83;;;;;;;;;;6315768;28;20082;-80
2022/07/06 13:19:33;;;;;;;46.78;38.72;;;;;;;;;;6322084;28;20048;-81
2022/07/06 13:22:34;;;;;;;7.03;5.53;;;;;;;;;;6317395;28;20041;-81
2022/07/06 13:25:36;;;;;;;17.70;15.18;;;;;;;;;;6320294;28;20235;-79
2022/07/06 13:28:37;;;;;;;;;;;;;;;;;;6320738;28;20044;-78
2022/07/06 13:31:40;;;;;;;6.93;4.25;;;;;;;;;;6290386;28;19916;-81
2022/07/06 13:34:43;;;;;;;7.82;5.47;;;;;;;;;;6319359;28;20044;-77
2022/07/06 13:37:47;;;;;;;8.68;4.00;;;;;;;;;;6317171;28;20125;-77
2022/07/06 13:40:48;;;;;;;12.40;11.07;;;;;;;;;;6317497;28;20057;-77
2022/07/06 13:43:50;;;;;;;8.80;7.40;;;;;;;;;;6317310;28;20141;-77
2022/07/06 13:46:52;;;;;;;25.63;18.73;;;;;;;;;;6316658;28;20059;-79
2022/07/06 13:49:55;;;;;;;3.88;1.85;;;;;;;;;;6314843;28;20048;-82
2022/07/06 13:52:57;;;;;;;2.88;1.60;;;;;;;;;;6319954;28;20044;-83
2022/07/06 13:55:58;;;;;;;3.10;1.38;;;;;;;;;;6318401;28;20048;-82
2022/07/06 13:59:00;;;;;;;2.78;1.30;;;;;;;;;;6314283;28;20048;-83
2022/07/06 14:02:02;;;;;;;1.77;1.30;;;;;;;;;;6315406;28;20060;-82
2022/07/06 14:05:05;;;;;;;;;;;;;;;;;;6318397;28;20049;-82
2022/07/06 14:08:07;;;;;;;3.05;1.30;;;;;;;;;;6314990;28;19924;-82
2022/07/06 14:11:09;;;;;;;3.72;1.48;;;;;;;;;;6317730;28;20044;-81
2022/07/06 14:14:11;;;;;;;3.38;1.33;;;;;;;;;;6311541;28;20049;-82
2022/07/06 14:17:13;;;;;;;1.88;1.50;;;;;;;;;;6315564;28;20051;-83
2022/07/06 14:20:17;;;;;;;2.65;1.30;;;;;;;;;;6314093;28;20052;-83
2022/07/06 14:23:19;;;;;;;4.00;1.83;;;;;;;;;;6317956;28;20070;-81
2022/07/06 14:26:21;;;;;;;;;;;;;;;;;;6308187;28;20060;-84
2022/07/06 14:29:22;;;;;;;2.95;1.40;;;;;;;;;;6312696;28;19923;-83
2022/07/06 14:32:24;;;;;;;1.70;1.40;;;;;;;;;;6314109;28;20273;-84
2022/07/06 14:35:27;;;;;;;3.70;1.80;;;;;;;;;;6312924;28;20092;-81
2022/07/06 14:38:29;;;;;;;2.70;1.60;;;;;;;;;;6315524;28;20055;-86
2022/07/06 14:41:31;;;;;;;2.50;1.65;;;;;;;;;;6313979;28;20060;-86
2022/07/06 14:44:32;;;;;;;4.97;1.40;;;;;;;;;;6315364;28;20227;-85
2022/07/06 14:47:35;;;;;;;2.95;1.55;;;;;;;;;;6315076;28;20056;-85
2022/07/06 14:50:38;;;;;;;1.98;1.42;;;;;;;;;;6314023;28;20044;-88
2022/07/06 14:53:40;;;;;;;2.88;1.40;;;;;;;;;;6313482;28;20047;-83
2022/07/06 14:56:42;;;;;;;3.13;1.40;;;;;;;;;;6313531;28;20055;-82
2022/07/06 14:59:44;;;;;;;5.47;1.60;;;;;;;;;;6314544;28;20315;-83
2022/07/06 15:02:46;;;;;;;2.75;1.48;;;;;;;;;;6316515;28;20060;-86
2022/07/06 15:05:49;;;;;;;3.20;1.60;;;;;;;;;;6312384;28;20046;-84
2022/07/06 15:08:50;;;;;;;1.55;1.38;;;;;;;;;;6309482;28;20060;-87
2022/07/06 15:11:53;;;;;;;1.80;1.30;;;;;;;;;;6294573;28;20060;-87
2022/07/06 15:14:54;;;;;;;2.83;1.58;;;;;;;;;;6314247;28;21008;-82
2022/07/06 15:17:56;;;;;;;2.10;1.20;;;;;;;;;;6317386;28;20056;-82
2022/07/06 15:20:59;;;;;;;1.97;1.50;;;;;;;;;;6312669;28;20086;-84
2022/07/06 15:24:01;;;;;;;2.95;1.70;;;;;;;;;;6309865;28;20044;-82
2022/07/06 15:27:03;;;;;;;9.30;5.40;;;;;;;;;;6312813;28;21604;-78
2022/07/06 15:30:05;;;;;;;;;;;;;;;;;;6315041;28;20055;-77
2022/07/06 15:33:06;;;;;;;10.40;7.97;;;;;;;;;;6316837;28;19925;-77
2022/07/06 15:36:10;;;;;;;3.92;2.05;;;;;;;;;;6315618;28;20061;-82
2022/07/06 15:39:12;;;;;;;1.73;1.55;;;;;;;;;;6310167;28;20093;-84
2022/07/06 15:42:13;;;;;;;2.38;1.50;;;;;;;;;;6312077;28;20044;-83
2022/07/06 15:45:17;;;;;;;3.95;1.63;;;;;;;;;;6313621;28;20055;-82
2022/07/06 15:48:18;;;;;;;4.93;1.90;;;;;;;;;;6316912;28;20063;-83
2022/07/06 15:51:22;;;;;;;2.45;1.50;;;;;;;;;;6317852;28;20052;-83
2022/07/06 15:54:23;;;;;;;3.42;1.70;;;;;;;;;;6314875;28;20048;-84
2022/07/06 15:57:25;;;;;;;5.20;1.60;;;;;;;;;;6315601;28;20064;-81
2022/07/06 16:00:27;;;;;;;2.67;1.60;;;;;;;;;;6314037;28;20092;-82
2022/07/06 16:03:29;;;;;;;4.72;2.05;;;;;;;;;;6312204;28;20062;-84
2022/07/06 16:06:32;;;;;;;2.53;1.70;;;;;;;;;;6315315;28;20051;-84
2022/07/06 16:09:33;;;;;;;2.95;1.67;;;;;;;;;;6312696;28;20090;-82
2022/07/06 16:12:35;;;;;;;2.70;1.50;;;;;;;;;;6305413;28;20060;-82
2022/07/06 16:15:37;;;;;;;3.67;1.75;;;;;;;;;;6311468;28;20056;-83
2022/07/06 16:18:39;;;;;;;3.40;2.03;;;;;;;;;;6311729;28;20265;-84
2022/07/06 16:21:42;;;;;;;3.38;1.73;;;;;;;;;;6312555;28;20048;-85
2022/07/06 16:24:43;;;;;;;12.18;1.75;;;;;;;;;;6311838;28;20216;-85
2022/07/06 16:27:45;;;;;;;5.32;1.98;;;;;;;;;;6311812;28;20044;-84
2022/07/06 16:30:47;;;;;;;2.50;1.80;;;;;;;;;;6311692;28;20059;-83
2022/07/06 16:33:49;;;;;;;5.70;2.00;;;;;;;;;;6313636;28;20162;-83
2022/07/06 16:36:52;;;;;;;3.72;1.90;;;;;;;;;;6320249;28;20048;-83
2022/07/06 16:39:53;;;;;;;2.28;1.63;;;;;;;;;;6311836;28;20055;-84
2022/07/06 16:42:55;;;;;;;1.70;1.60;;;;;;;;;;6320548;28;20052;-82
2022/07/06 16:45:57;;;;;;;4.40;2.00;;;;;;;;;;6317195;28;20044;-82
2022/07/06 16:48:58;;;;;;;3.45;1.65;;;;;;;;;;6318789;28;20117;-83
2022/07/06 16:52:02;;;;;;;3.88;2.10;;;;;;;;;;6321432;28;20060;-84
2022/07/06 16:55:04;;;;;;;3.17;1.90;;;;;;;;;;6319140;28;20119;-84
2022/07/06 16:58:06;;;;;;;4.10;2.20;;;;;;;;;;6317029;28;20052;-84
2022/07/06 17:01:07;;;;;;;3.75;1.73;;;;;;;;;;6316618;28;20048;-84
2022/07/06 17:04:09;;;;;;;4.03;1.90;;;;;;;;;;6313994;28;20329;-85
2022/07/06 17:07:12;;;;;;;4.40;2.00;;;;;;;;;;6316404;28;20052;-82
2022/07/06 17:10:14;;;;;;;6.10;2.40;;;;;;;;;;6313168;28;20046;-83
2022/07/06 17:13:16;;;;;;;2.42;1.73;;;;;;;;;;6315939;28;20051;-83
2022/07/06 17:16:18;;;;;;;4.38;1.90;;;;;;;;;;6318773;28;20041;-84
2022/07/06 17:19:20;;;;;;;4.70;1.70;;;;;;;;;;6314686;28;20091;-83
2022/07/06 17:22:23;;;;;;;3.45;1.70;;;;;;;;;;6311349;28;20074;-84
2022/07/06 17:25:25;;;;;;;3.97;1.63;;;;;;;;;;6317624;28;20044;-83
2022/07/06 17:28:27;;;;;;;2.60;1.60;;;;;;;;;;6315147;28;20052;-84
2022/07/06 17:31:29;;;;;;;1.77;1.63;;;;;;;;;;6319768;28;20309;-84
2022/07/06 17:34:31;;;;;;;3.75;1.52;;;;;;;;;;6318569;28;20048;-87
2022/07/06 17:37:34;;;;;;;2.50;1.67;;;;;;;;;;6317852;28;20189;-82
2022/07/06 17:40:36;;;;;;;2.80;1.80;;;;;;;;;;6314843;28;20044;-81
2022/07/06 17:43:38;;;;;;;2.80;1.63;;;;;;;;;;6313059;28;20060;-86
2022/07/06 17:46:40;;;;;;;4.37;1.90;;;;;;;;;;6314987;28;20330;-81
2022/07/06 17:49:41;;;;;;;3.47;1.97;;;;;;;;;;6316820;28;20047;-90
2022/07/06 17:52:45;;;;;;;1.92;1.60;;;;;;;;;;6321070;28;20241;-88
2022/07/06 17:55:47;;;;;;;2.40;1.90;;;;;;;;;;6311352;28;20060;-85
2022/07/06 17:58:49;;;;;;;5.47;2.38;;;;;;;;;;6305925;28;20048;-87
2022/07/06 18:01:50;;;;;;;5.22;1.63;;;;;;;;;;6304411;28;20067;-86
2022/07/06 18:04:52;;;;;;;4.25;2.03;;;;;;;;;;6300452;28;20090;-85
2022/07/06 18:07:55;;;;;;;4.47;1.83;;;;;;;;;;6303994;28;20076;-85
2022/07/06 18:10:58;;;;;;;2.83;1.73;;;;;;;;;;6304681;28;20331;-80
2022/07/06 18:14:01;;;;;;;3.08;1.80;;;;;;;;;;6305701;28;20124;-83
2022/07/06 18:17:03;;;;;;;4.85;2.13;;;;;;;;;;6304204;28;20058;-82
2022/07/06 18:20:05;;;;;;;2.85;1.85;;;;;;;;;;6305874;28;20055;-80
2022/07/06 18:23:09;;;;;;;4.10;1.73;;;;;;;;;;6304991;28;20679;-81